Time,TemperatureF,DewpointF,PressureIn,WindDirection,WindDirectionDegrees,WindSpeedMPH,WindSpeedGustMPH,Humidity,HourlyPrecipIn,Conditions,Clouds,dailyrainin,SoftwareType,DateUTC
2013-01-20 00:03:00,1.7,-19.0,29.15,South,184,0.0,5.1,36,0.00,,BKN022,0.00,VWS V14.01,2013-01-20 06:03:00,
2013-01-20 00:08:00,1.7,-19.0,29.15,WSW,258,2.7,4.7,36,0.00,,BKN022,0.00,VWS V14.01,2013-01-20 06:08:00,
2013-01-20 00:13:00,1.7,-19.0,29.15,NW,324,9.8,9.8,36,0.00,,BKN022,0.00,VWS V14.01,2013-01-20 06:13:00,
2013-01-20 00:18:00,1.6,-19.2,29.15,NNW,328,4.7,6.0,36,0.00,,BKN022,0.00,VWS V14.01,2013-01-20 06:18:00,
2013-01-20 00:23:00,1.6,-19.2,29.15,North,353,4.7,5.1,36,0.00,,BKN022,0.00,VWS V14.01,2013-01-20 06:23:00,
2013-01-20 00:28:00,1.4,-19.4,29.15,NW,313,8.9,8.9,36,0.00,,BKN022,0.00,VWS V14.01,2013-01-20 06:28:00,
2013-01-20 00:33:00,1.2,-19.5,29.15,West,278,8.9,8.9,36,0.00,,BKN022,0.00,VWS V14.01,2013-01-20 06:33:00,
2013-01-20 00:38:00,1.2,-19.5,29.15,WNW,282,4.0,8.3,36,0.00,,BKN022,0.00,VWS V14.01,2013-01-20 06:38:00,
2013-01-20 00:43:00,1.2,-19.5,29.15,WNW,285,5.1,6.9,36,0.00,,BKN022,0.00,VWS V14.01,2013-01-20 06:43:00,
2013-01-20 00:48:00,1.2,-19.5,29.15,NW,309,5.1,6.5,36,0.00,,BKN022,0.00,VWS V14.01,2013-01-20 06:48:00,
2013-01-20 00:53:00,1.0,-19.7,29.15,WSW,239,6.5,6.5,36,0.00,,BKN022,0.00,VWS V14.01,2013-01-20 06:53:00,
2013-01-20 00:58:00,1.0,-19.7,29.15,WSW,250,4.0,6.5,36,0.00,,BKN022,0.00,VWS V14.01,2013-01-20 06:58:00,
2013-01-20 01:03:00,0.8,-19.9,29.18,West,276,2.7,4.0,36,0.00,,FEW022,0.00,VWS V14.01,2013-01-20 07:03:00,
2013-01-20 01:08:00,0.8,-19.9,29.18,NW,321,0.0,6.9,36,0.00,,FEW022,0.00,VWS V14.01,2013-01-20 07:08:00,
2013-01-20 01:13:00,0.8,-19.9,29.18,West,279,6.0,6.0,36,0.00,,FEW022,0.00,VWS V14.01,2013-01-20 07:13:00,
2013-01-20 01:18:00,0.8,-19.9,29.18,WNW,294,4.5,7.8,36,0.00,,FEW022,0.00,VWS V14.01,2013-01-20 07:18:00,
2013-01-20 01:23:00,0.8,-19.9,29.18,NNW,344,3.1,5.1,36,0.00,,FEW022,0.00,VWS V14.01,2013-01-20 07:23:00,
2013-01-20 01:28:00,0.8,-19.9,29.18,West,273,4.5,6.9,36,0.00,,FEW022,0.00,VWS V14.01,2013-01-20 07:28:00,
2013-01-20 01:33:00,0.8,-19.9,29.18,SW,216,4.7,8.9,36,0.00,,FEW022,0.00,VWS V14.01,2013-01-20 07:33:00,
2013-01-20 01:38:00,0.8,-19.9,29.18,West,262,3.1,4.7,36,0.00,,FEW022,0.00,VWS V14.01,2013-01-20 07:38:00,
2013-01-20 01:43:00,0.7,-20.0,29.18,NW,317,3.6,4.7,36,0.00,,FEW022,0.00,VWS V14.01,2013-01-20 07:43:00,
2013-01-20 01:48:00,0.7,-20.0,29.21,WNW,289,4.0,7.8,36,0.00,,FEW022,0.00,VWS V14.01,2013-01-20 07:48:00,
2013-01-20 01:53:00,0.5,-20.2,29.21,WNW,282,5.6,7.8,36,0.00,,FEW022,0.00,VWS V14.01,2013-01-20 07:53:00,
2013-01-20 01:58:00,0.5,-20.2,29.21,WNW,297,11.6,11.6,36,0.00,,FEW022,0.00,VWS V14.01,2013-01-20 07:58:00,
2013-01-20 02:03:00,0.5,-20.2,29.21,NW,307,5.6,5.6,36,0.00,,CLR,0.00,VWS V14.01,2013-01-20 08:03:00,
2013-01-20 02:08:00,0.3,-20.3,29.21,West,267,5.6,5.6,36,0.00,,CLR,0.00,VWS V14.01,2013-01-20 08:08:00,
2013-01-20 02:13:00,0.1,-20.5,29.21,WNW,294,4.7,6.9,36,0.00,,CLR,0.00,VWS V14.01,2013-01-20 08:13:00,
2013-01-20 02:18:00,0.1,-20.5,29.21,WSW,249,4.7,4.7,36,0.00,,CLR,0.00,VWS V14.01,2013-01-20 08:18:00,
2013-01-20 02:23:00,-0.1,-20.7,29.21,WNW,291,2.7,5.1,36,0.00,,CLR,0.00,VWS V14.01,2013-01-20 08:23:00,
2013-01-20 02:28:00,-0.1,-20.7,29.21,West,276,0.0,0.0,36,0.00,,CLR,0.00,VWS V14.01,2013-01-20 08:28:00,
2013-01-20 02:33:00,-0.1,-20.7,29.21,North,353,3.6,8.7,36,0.00,,CLR,0.00,VWS V14.01,2013-01-20 08:33:00,
2013-01-20 02:39:00,-0.2,-20.8,29.21,NW,319,3.6,3.6,36,0.00,,CLR,0.00,VWS V14.01,2013-01-20 08:39:00,
2013-01-20 02:44:00,-0.2,-20.8,29.21,WNW,300,0.0,0.0,36,0.00,,CLR,0.00,VWS V14.01,2013-01-20 08:44:00,
2013-01-20 02:49:00,-0.4,-21.0,29.23,WSW,238,2.7,6.9,36,0.00,,CLR,0.00,VWS V14.01,2013-01-20 08:49:00,
2013-01-20 02:54:00,-0.4,-21.0,29.23,WSW,238,0.0,4.5,36,0.00,,CLR,0.00,VWS V14.01,2013-01-20 08:54:00,
2013-01-20 02:59:00,-0.4,-21.0,29.23,WSW,258,2.7,3.1,36,0.00,,CLR,0.00,VWS V14.01,2013-01-20 08:59:00,
2013-01-20 03:04:00,-0.4,-21.0,29.23,WSW,248,0.0,4.5,36,0.00,,CLR,0.00,VWS V14.01,2013-01-20 09:04:00,
2013-01-20 03:09:00,-0.6,-21.1,29.23,West,274,2.7,4.5,36,0.00,,CLR,0.00,VWS V14.01,2013-01-20 09:09:00,
2013-01-20 03:14:00,-0.6,-21.1,29.23,WNW,289,4.5,5.6,36,0.00,,CLR,0.00,VWS V14.01,2013-01-20 09:14:00,
2013-01-20 03:19:00,-0.6,-21.1,29.23,WSW,241,2.7,5.6,36,0.00,,CLR,0.00,VWS V14.01,2013-01-20 09:19:00,
2013-01-20 03:24:00,-0.6,-21.1,29.23,West,262,3.1,6.5,36,0.00,,CLR,0.00,VWS V14.01,2013-01-20 09:24:00,
2013-01-20 03:29:00,-0.6,-21.1,29.23,NW,314,4.7,6.9,36,0.00,,CLR,0.00,VWS V14.01,2013-01-20 09:29:00,
2013-01-20 03:34:00,-0.8,-21.3,29.23,SW,225,3.1,3.1,36,0.00,,CLR,0.00,VWS V14.01,2013-01-20 09:34:00,
2013-01-20 03:39:00,-0.8,-21.3,29.23,WSW,256,4.5,5.6,36,0.00,,CLR,0.00,VWS V14.01,2013-01-20 09:39:00,
2013-01-20 03:44:00,-0.8,-21.3,29.23,NNW,329,3.6,3.6,36,0.00,,CLR,0.00,VWS V14.01,2013-01-20 09:44:00,
2013-01-20 03:49:00,-0.8,-21.3,29.26,NNW,341,3.1,3.1,36,0.00,,CLR,0.00,VWS V14.01,2013-01-20 09:49:00,
2013-01-20 03:54:00,-1.0,-21.5,29.26,WNW,297,4.0,4.0,36,0.00,,CLR,0.00,VWS V14.01,2013-01-20 09:54:00,
2013-01-20 03:59:00,-1.0,-21.5,29.26,WNW,302,4.0,6.0,36,0.00,,CLR,0.00,VWS V14.01,2013-01-20 09:59:00,
2013-01-20 04:04:00,-1.1,-21.6,29.26,WNW,292,7.8,7.8,36,0.00,,CLR,0.00,VWS V14.01,2013-01-20 10:04:00,
2013-01-20 04:09:00,-1.1,-21.6,29.26,West,262,0.0,0.0,36,0.00,,CLR,0.00,VWS V14.01,2013-01-20 10:09:00,
2013-01-20 04:14:00,-1.1,-21.6,29.26,SW,234,4.7,6.5,36,0.00,,CLR,0.00,VWS V14.01,2013-01-20 10:14:00,
2013-01-20 04:19:00,-1.3,-21.8,29.26,West,268,7.4,7.4,36,0.00,,CLR,0.00,VWS V14.01,2013-01-20 10:19:00,
2013-01-20 04:24:00,-1.3,-21.8,29.26,West,272,4.5,4.5,36,0.00,,CLR,0.00,VWS V14.01,2013-01-20 10:24:00,
2013-01-20 04:29:00,-1.3,-21.8,29.26,WNW,296,5.6,5.6,36,0.00,,CLR,0.00,VWS V14.01,2013-01-20 10:29:00,
2013-01-20 04:34:00,-1.3,-21.8,29.26,WNW,300,0.0,2.7,36,0.00,,CLR,0.00,VWS V14.01,2013-01-20 10:34:00,
2013-01-20 04:39:00,-1.3,-21.8,29.26,SW,225,4.0,6.9,36,0.00,,CLR,0.00,VWS V14.01,2013-01-20 10:39:00,
2013-01-20 04:44:00,-1.3,-21.8,29.26,NW,311,3.6,5.1,36,0.00,,CLR,0.00,VWS V14.01,2013-01-20 10:44:00,
2013-01-20 04:49:00,-1.5,-22.0,29.26,NW,318,6.0,6.0,36,0.00,,CLR,0.00,VWS V14.01,2013-01-20 10:49:00,
2013-01-20 04:54:00,-1.5,-22.0,29.26,SSW,209,4.7,4.7,36,0.00,,CLR,0.00,VWS V14.01,2013-01-20 10:54:00,
2013-01-20 04:59:00,-1.7,-22.1,29.26,WSW,250,6.5,6.5,36,0.00,,CLR,0.00,VWS V14.01,2013-01-20 10:59:00,
2013-01-20 05:04:00,-1.7,-22.1,29.29,West,260,6.0,6.0,36,0.00,,CLR,0.00,VWS V14.01,2013-01-20 11:04:00,
2013-01-20 05:09:00,-1.7,-22.1,29.29,SW,229,3.1,5.1,36,0.00,,CLR,0.00,VWS V14.01,2013-01-20 11:09:00,
2013-01-20 05:14:00,-1.7,-22.1,29.29,SW,225,0.0,7.8,36,0.00,,CLR,0.00,VWS V14.01,2013-01-20 11:14:00,
2013-01-20 05:19:00,-1.9,-22.3,29.29,NNW,330,0.0,5.1,36,0.00,,CLR,0.00,VWS V14.01,2013-01-20 11:19:00,
2013-01-20 05:24:00,-2.0,-22.4,29.29,WSW,250,0.0,4.5,36,0.00,,CLR,0.00,VWS V14.01,2013-01-20 11:24:00,
2013-01-20 05:29:00,-2.0,-22.4,29.29,SSW,212,4.7,4.7,36,0.00,,CLR,0.00,VWS V14.01,2013-01-20 11:29:00,
2013-01-20 05:34:00,-2.0,-22.4,29.29,WNW,285,0.0,4.5,36,0.00,,CLR,0.00,VWS V14.01,2013-01-20 11:34:00,
2013-01-20 05:39:00,-2.2,-22.6,29.29,WNW,287,0.0,3.1,36,0.00,,CLR,0.00,VWS V14.01,2013-01-20 11:39:00,
2013-01-20 05:44:00,-2.4,-22.8,29.29,WSW,251,3.6,3.6,36,0.00,,CLR,0.00,VWS V14.01,2013-01-20 11:44:00,
2013-01-20 05:49:00,-2.4,-22.8,29.29,West,269,0.0,3.6,36,0.00,,CLR,0.00,VWS V14.01,2013-01-20 11:49:00,
2013-01-20 05:54:00,-2.4,-22.8,29.29,NNW,337,0.0,4.7,36,0.00,,CLR,0.00,VWS V14.01,2013-01-20 11:54:00,
2013-01-20 05:59:00,-2.6,-22.9,29.29,West,264,0.0,4.0,36,0.00,,CLR,0.00,VWS V14.01,2013-01-20 11:59:00,
2013-01-20 06:04:00,-2.6,-22.9,29.29,NW,311,3.6,4.5,36,0.00,,CLR,0.00,VWS V14.01,2013-01-20 12:04:00,
2013-01-20 06:10:00,-2.6,-22.9,29.29,NW,314,0.0,3.6,36,0.00,,CLR,0.00,VWS V14.01,2013-01-20 12:10:00,
2013-01-20 06:15:00,-2.6,-22.9,29.29,WSW,252,0.0,3.6,36,0.00,,CLR,0.00,VWS V14.01,2013-01-20 12:15:00,
2013-01-20 06:19:00,-2.6,-22.9,29.32,WSW,256,0.0,2.7,36,0.00,,CLR,0.00,VWS V14.01,2013-01-20 12:19:00,
2013-01-20 06:25:00,-2.6,-22.9,29.32,SW,215,4.7,4.7,36,0.00,,CLR,0.00,VWS V14.01,2013-01-20 12:25:00,
2013-01-20 06:30:00,-2.6,-22.9,29.32,West,261,0.0,2.7,36,0.00,,CLR,0.00,VWS V14.01,2013-01-20 12:30:00,
2013-01-20 06:35:00,-2.8,-23.1,29.29,West,266,0.0,3.1,36,0.00,,CLR,0.00,VWS V14.01,2013-01-20 12:35:00,
2013-01-20 06:40:00,-2.9,-23.2,29.29,North,353,0.0,3.6,36,0.00,,CLR,0.00,VWS V14.01,2013-01-20 12:40:00,
2013-01-20 06:45:00,-2.9,-23.2,29.29,North,353,2.7,2.7,36,0.00,,CLR,0.00,VWS V14.01,2013-01-20 12:45:00,
2013-01-20 06:50:00,-2.9,-23.2,29.32,NW,310,0.0,0.0,36,0.00,,CLR,0.00,VWS V14.01,2013-01-20 12:50:00,
2013-01-20 06:55:00,-3.1,-23.4,29.32,WSW,257,0.0,0.0,36,0.00,,CLR,0.00,VWS V14.01,2013-01-20 12:55:00,
2013-01-20 07:00:00,-3.3,-23.6,29.32,WSW,257,2.7,2.7,36,0.00,,CLR,0.00,VWS V14.01,2013-01-20 13:00:00,
2013-01-20 07:05:00,-3.3,-23.6,29.32,NW,311,0.0,0.0,36,0.00,,CLR,0.00,VWS V14.01,2013-01-20 13:05:00,
2013-01-20 07:10:00,-3.3,-23.6,29.32,NW,310,0.0,0.0,36,0.00,,CLR,0.00,VWS V14.01,2013-01-20 13:10:00,
2013-01-20 07:15:00,-3.3,-23.6,29.32,NW,308,0.0,0.0,36,0.00,,CLR,0.00,VWS V14.01,2013-01-20 13:15:00,
2013-01-20 07:20:00,-3.5,-23.7,29.29,WNW,286,0.0,0.0,36,0.00,,CLR,0.00,VWS V14.01,2013-01-20 13:20:00,
2013-01-20 07:25:00,-3.5,-23.7,29.29,WNW,288,0.0,0.0,36,0.00,,CLR,0.00,VWS V14.01,2013-01-20 13:25:00,
2013-01-20 07:30:00,-3.5,-23.7,29.29,WSW,245,4.0,4.0,36,0.00,,CLR,0.00,VWS V14.01,2013-01-20 13:30:00,
2013-01-20 07:35:00,-3.5,-23.7,29.32,WNW,284,2.7,2.7,36,0.00,,CLR,0.00,VWS V14.01,2013-01-20 13:35:00,
2013-01-20 07:40:00,-3.5,-23.7,29.32,SW,228,0.0,0.0,36,0.00,,CLR,0.00,VWS V14.01,2013-01-20 13:40:00,
2013-01-20 07:45:00,-3.5,-23.7,29.32,WSW,258,0.0,6.5,36,0.00,,CLR,0.00,VWS V14.01,2013-01-20 13:45:00,
2013-01-20 07:50:00,-3.7,-23.9,29.32,West,266,0.0,3.1,36,0.00,,CLR,0.00,VWS V14.01,2013-01-20 13:50:00,
2013-01-20 07:55:00,-3.7,-23.9,29.32,West,266,0.0,0.0,36,0.00,,CLR,0.00,VWS V14.01,2013-01-20 13:55:00,
2013-01-20 08:00:00,-3.5,-23.7,29.32,WNW,296,0.0,4.7,36,0.00,,CLR,0.00,VWS V14.01,2013-01-20 14:00:00,
2013-01-20 08:05:00,-3.5,-23.7,29.32,WNW,290,4.0,5.1,36,0.00,,CLR,0.00,VWS V14.01,2013-01-20 14:05:00,
2013-01-20 08:10:00,-3.3,-23.6,29.32,WNW,291,4.7,5.1,36,0.00,,CLR,0.00,VWS V14.01,2013-01-20 14:10:00,
2013-01-20 08:15:00,-3.3,-23.6,29.32,SW,222,6.5,6.5,36,0.00,,CLR,0.00,VWS V14.01,2013-01-20 14:15:00,
2013-01-20 08:20:00,-3.3,-23.6,29.32,WSW,246,0.0,0.0,36,0.00,,CLR,0.00,VWS V14.01,2013-01-20 14:20:00,
2013-01-20 08:25:00,-3.3,-23.6,29.32,West,268,0.0,3.6,36,0.00,,CLR,0.00,VWS V14.01,2013-01-20 14:25:00,
2013-01-20 08:30:00,-3.3,-23.6,29.32,West,269,0.0,0.0,36,0.00,,CLR,0.00,VWS V14.01,2013-01-20 14:30:00,
2013-01-20 08:35:00,-3.1,-23.4,29.32,West,259,3.1,6.0,36,0.00,,CLR,0.00,VWS V14.01,2013-01-20 14:35:00,
2013-01-20 08:40:00,-2.9,-23.2,29.32,WSW,258,3.6,6.9,36,0.00,,CLR,0.00,VWS V14.01,2013-01-20 14:40:00,
2013-01-20 08:45:00,-2.6,-22.9,29.32,SW,229,6.0,6.0,36,0.00,,CLR,0.00,VWS V14.01,2013-01-20 14:45:00,
2013-01-20 08:50:00,-2.4,-22.8,29.32,NW,305,0.0,3.6,36,0.00,,CLR,0.00,VWS V14.01,2013-01-20 14:50:00,
2013-01-20 08:55:00,-2.0,-22.4,29.32,NW,318,0.0,0.0,36,0.00,,CLR,0.00,VWS V14.01,2013-01-20 14:55:00,
2013-01-20 09:00:00,-2.0,-22.4,29.32,NNW,335,0.0,3.1,36,0.00,,CLR,0.00,VWS V14.01,2013-01-20 15:00:00,
2013-01-20 09:05:00,-2.0,-22.4,29.32,NW,305,0.0,3.6,36,0.00,,CLR,0.00,VWS V14.01,2013-01-20 15:05:00,
2013-01-20 09:10:00,-2.0,-22.4,29.32,North,353,0.0,5.1,36,0.00,,CLR,0.00,VWS V14.01,2013-01-20 15:10:00,
2013-01-20 09:15:00,-2.0,-22.4,29.32,West,264,2.7,7.4,36,0.00,,CLR,0.00,VWS V14.01,2013-01-20 15:15:00,
2013-01-20 09:20:00,-2.2,-22.6,29.32,West,259,0.0,0.0,36,0.00,,CLR,0.00,VWS V14.01,2013-01-20 15:20:00,
2013-01-20 09:25:00,-2.2,-22.6,29.32,SSW,208,4.0,6.9,36,0.00,,CLR,0.00,VWS V14.01,2013-01-20 15:25:00,
2013-01-20 09:30:00,-2.0,-22.4,29.32,WSW,237,4.0,8.3,36,0.00,,CLR,0.00,VWS V14.01,2013-01-20 15:30:00,
2013-01-20 09:35:00,-1.9,-22.3,29.35,WSW,238,3.1,8.9,36,0.00,,CLR,0.00,VWS V14.01,2013-01-20 15:35:00,
2013-01-20 09:40:00,-1.9,-22.3,29.35,West,265,0.0,5.1,36,0.00,,CLR,0.00,VWS V14.01,2013-01-20 15:40:00,
2013-01-20 09:45:00,-1.7,-22.1,29.35,West,260,6.0,6.0,36,0.00,,CLR,0.00,VWS V14.01,2013-01-20 15:45:00,
2013-01-20 09:50:00,-1.5,-22.0,29.35,West,275,2.7,6.5,36,0.00,,CLR,0.00,VWS V14.01,2013-01-20 15:50:00,
2013-01-20 09:55:00,-1.3,-21.8,29.35,WSW,238,5.1,5.1,36,0.00,,CLR,0.00,VWS V14.01,2013-01-20 15:55:00,
2013-01-20 10:00:00,-1.3,-21.8,29.35,SW,223,4.0,4.7,36,0.00,,CLR,0.00,VWS V14.01,2013-01-20 16:00:00,
2013-01-20 10:06:00,-1.3,-21.8,29.35,West,262,3.6,6.0,36,0.00,,CLR,0.00,VWS V14.01,2013-01-20 16:06:00,
2013-01-20 10:11:00,-1.0,-21.5,29.35,WNW,285,4.0,6.0,36,0.00,,CLR,0.00,VWS V14.01,2013-01-20 16:11:00,
2013-01-20 10:16:00,-0.8,-21.3,29.35,West,281,0.0,5.6,36,0.00,,CLR,0.00,VWS V14.01,2013-01-20 16:16:00,
2013-01-20 10:20:00,-0.4,-21.0,29.35,West,276,5.1,5.1,36,0.00,,CLR,0.00,VWS V14.01,2013-01-20 16:20:00,
2013-01-20 10:26:00,-0.4,-21.0,29.35,WSW,243,4.5,9.8,36,0.00,,CLR,0.00,VWS V14.01,2013-01-20 16:26:00,
2013-01-20 10:31:00,-0.4,-21.0,29.35,SSW,212,4.5,4.5,36,0.00,,CLR,0.00,VWS V14.01,2013-01-20 16:31:00,
2013-01-20 10:36:00,-0.4,-21.0,29.35,NNW,337,6.0,6.5,36,0.00,,CLR,0.00,VWS V14.01,2013-01-20 16:36:00,
2013-01-20 10:41:00,-0.1,-20.7,29.35,WSW,258,7.4,7.4,36,0.00,,CLR,0.00,VWS V14.01,2013-01-20 16:41:00,
2013-01-20 10:46:00,-0.1,-20.7,29.35,WSW,238,6.0,6.0,36,0.00,,CLR,0.00,VWS V14.01,2013-01-20 16:46:00,
2013-01-20 10:51:00,0.3,-20.3,29.35,North,357,4.7,4.7,36,0.00,,CLR,0.00,VWS V14.01,2013-01-20 16:51:00,
2013-01-20 10:56:00,0.5,-20.2,29.35,South,187,8.9,8.9,36,0.00,,CLR,0.00,VWS V14.01,2013-01-20 16:56:00,
2013-01-20 11:01:00,0.5,-20.2,29.35,WSW,251,7.4,7.4,36,0.00,,CLR,0.00,VWS V14.01,2013-01-20 17:01:00,
2013-01-20 11:06:00,0.7,-20.0,29.35,SW,234,0.0,0.0,36,0.00,,CLR,0.00,VWS V14.01,2013-01-20 17:06:00,
2013-01-20 11:11:00,0.8,-19.9,29.35,North,353,4.0,6.0,36,0.00,,CLR,0.00,VWS V14.01,2013-01-20 17:11:00,
2013-01-20 11:16:00,0.8,-19.9,29.35,SW,214,5.1,5.1,36,0.00,,CLR,0.00,VWS V14.01,2013-01-20 17:16:00,
2013-01-20 11:21:00,0.8,-19.9,29.35,SW,226,4.5,4.5,36,0.00,,CLR,0.00,VWS V14.01,2013-01-20 17:21:00,
2013-01-20 11:26:00,1.2,-19.5,29.35,WNW,298,4.7,4.7,36,0.00,,CLR,0.00,VWS V14.01,2013-01-20 17:26:00,
2013-01-20 11:31:00,1.6,-19.2,29.35,WSW,242,3.6,4.0,36,0.00,,CLR,0.00,VWS V14.01,2013-01-20 17:31:00,
2013-01-20 11:36:00,1.9,-18.9,29.35,NW,321,3.6,7.4,36,0.00,,CLR,0.00,VWS V14.01,2013-01-20 17:36:00,
2013-01-20 11:41:00,2.1,-18.7,29.35,SSW,195,3.6,3.6,36,0.00,,CLR,0.00,VWS V14.01,2013-01-20 17:41:00,
2013-01-20 11:46:00,2.5,-18.4,29.35,WSW,250,3.6,3.6,36,0.00,,CLR,0.00,VWS V14.01,2013-01-20 17:46:00,
2013-01-20 11:51:00,3.0,-17.9,29.35,WNW,293,5.1,5.1,36,0.00,,CLR,0.00,VWS V14.01,2013-01-20 17:51:00,
2013-01-20 11:56:00,3.5,-17.4,29.35,WSW,242,5.1,6.9,36,0.00,,CLR,0.00,VWS V14.01,2013-01-20 17:56:00,
2013-01-20 12:01:00,3.9,-17.1,29.35,WSW,249,4.5,4.5,36,0.00,,CLR,0.00,VWS V14.01,2013-01-20 18:01:00,
2013-01-20 12:06:00,4.4,-16.6,29.32,SW,227,4.0,4.7,36,0.00,,CLR,0.00,VWS V14.01,2013-01-20 18:06:00,
2013-01-20 12:11:00,4.4,-16.6,29.32,West,277,4.7,6.0,36,0.00,,CLR,0.00,VWS V14.01,2013-01-20 18:11:00,
2013-01-20 12:16:00,4.6,-16.5,29.32,NW,311,6.0,6.0,36,0.00,,CLR,0.00,VWS V14.01,2013-01-20 18:16:00,
2013-01-20 12:21:00,5.0,-16.1,29.32,West,275,3.1,7.4,36,0.00,,CLR,0.00,VWS V14.01,2013-01-20 18:21:00,
2013-01-20 12:26:00,5.2,-16.0,29.32,WSW,237,4.7,8.9,36,0.00,,CLR,0.00,VWS V14.01,2013-01-20 18:26:00,
2013-01-20 12:31:00,5.5,-15.6,29.32,NW,325,3.6,5.1,36,0.00,,CLR,0.00,VWS V14.01,2013-01-20 18:31:00,
2013-01-20 12:36:00,6.1,-15.1,29.32,NW,320,4.7,4.7,36,0.00,,CLR,0.00,VWS V14.01,2013-01-20 18:36:00,
2013-01-20 12:41:00,6.4,-14.8,29.32,West,270,7.4,8.3,36,0.00,,CLR,0.00,VWS V14.01,2013-01-20 18:41:00,
2013-01-20 12:46:00,5.9,-15.3,29.32,SW,220,7.8,9.8,36,0.00,,CLR,0.00,VWS V14.01,2013-01-20 18:46:00,
2013-01-20 12:51:00,5.9,-15.3,29.32,WSW,258,4.0,5.1,36,0.00,,CLR,0.00,VWS V14.01,2013-01-20 18:51:00,
2013-01-20 12:56:00,5.9,-15.3,29.32,SSW,211,4.5,6.0,36,0.00,,CLR,0.00,VWS V14.01,2013-01-20 18:56:00,
2013-01-20 13:01:00,5.9,-15.3,29.32,NW,322,4.7,8.7,36,0.00,,OVC110,0.00,VWS V14.01,2013-01-20 19:01:00,
2013-01-20 13:06:00,6.1,-15.1,29.32,SW,224,0.0,6.9,36,0.00,,OVC110,0.00,VWS V14.01,2013-01-20 19:06:00,
2013-01-20 13:12:00,6.8,-14.5,29.32,West,276,3.1,4.0,36,0.00,,OVC110,0.00,VWS V14.01,2013-01-20 19:12:00,
2013-01-20 13:17:00,7.7,-13.7,29.32,NW,314,4.0,4.7,36,0.00,,OVC110,0.00,VWS V14.01,2013-01-20 19:17:00,
2013-01-20 13:22:00,8.0,-13.4,29.29,NNW,341,7.4,7.4,36,0.00,,OVC110,0.00,VWS V14.01,2013-01-20 19:22:00,
2013-01-20 13:27:00,8.0,-13.4,29.29,South,188,4.5,7.8,36,0.00,,OVC110,0.00,VWS V14.01,2013-01-20 19:27:00,
2013-01-20 13:32:00,7.7,-13.7,29.29,West,270,4.5,4.5,36,0.00,,OVC110,0.00,VWS V14.01,2013-01-20 19:32:00,
2013-01-20 13:37:00,7.7,-13.7,29.32,WNW,288,0.0,0.0,36,0.00,,OVC110,0.00,VWS V14.01,2013-01-20 19:37:00,
2013-01-20 13:42:00,8.0,-13.4,29.32,NW,325,6.5,6.5,36,0.00,,OVC110,0.00,VWS V14.01,2013-01-20 19:42:00,
2013-01-20 13:47:00,7.3,-14.0,29.32,WSW,258,3.6,8.3,36,0.00,,OVC110,0.00,VWS V14.01,2013-01-20 19:47:00,
2013-01-20 13:52:00,7.1,-14.2,29.29,NNW,346,5.1,5.1,36,0.00,,OVC110,0.00,VWS V14.01,2013-01-20 19:52:00,
2013-01-20 13:57:00,7.0,-14.4,29.29,NE,51,3.1,5.6,36,0.00,,OVC110,0.00,VWS V14.01,2013-01-20 19:57:00,
2013-01-20 14:02:00,7.1,-14.2,29.29,NNW,343,4.0,6.5,36,0.00,,OVC100,0.00,VWS V14.01,2013-01-20 20:02:00,
2013-01-20 14:07:00,6.8,-14.5,29.29,NW,321,3.1,4.0,36,0.00,,OVC100,0.00,VWS V14.01,2013-01-20 20:07:00,
2013-01-20 14:12:00,7.1,-14.2,29.29,WSW,237,8.9,8.9,36,0.00,,OVC100,0.00,VWS V14.01,2013-01-20 20:12:00,
2013-01-20 14:17:00,7.7,-13.7,29.29,NW,317,0.0,5.6,36,0.00,,OVC100,0.00,VWS V14.01,2013-01-20 20:17:00,
2013-01-20 14:22:00,7.7,-13.7,29.29,North,353,4.5,5.6,36,0.00,,OVC100,0.00,VWS V14.01,2013-01-20 20:22:00,
2013-01-20 14:27:00,7.3,-14.0,29.29,NW,310,6.9,11.2,36,0.00,,OVC100,0.00,VWS V14.01,2013-01-20 20:27:00,
2013-01-20 14:32:00,7.1,-14.2,29.29,West,273,7.4,7.4,36,0.00,,OVC100,0.00,VWS V14.01,2013-01-20 20:32:00,
2013-01-20 14:37:00,7.3,-14.0,29.29,West,280,6.0,6.0,36,0.00,,OVC100,0.00,VWS V14.01,2013-01-20 20:37:00,
2013-01-20 14:42:00,7.5,-13.9,29.29,WNW,291,3.6,4.7,36,0.00,,OVC100,0.00,VWS V14.01,2013-01-20 20:42:00,
2013-01-20 14:47:00,7.5,-13.9,29.29,West,269,5.6,8.7,36,0.00,,OVC100,0.00,VWS V14.01,2013-01-20 20:47:00,
2013-01-20 14:52:00,7.1,-14.2,29.29,SW,225,4.7,9.4,36,0.00,,OVC100,0.00,VWS V14.01,2013-01-20 20:52:00,
2013-01-20 14:57:00,6.8,-14.5,29.29,West,266,4.7,6.9,36,0.00,,OVC100,0.00,VWS V14.01,2013-01-20 20:57:00,
2013-01-20 15:02:00,7.0,-14.4,29.29,NW,319,3.6,6.0,36,0.00,,SCT095,0.00,VWS V14.01,2013-01-20 21:02:00,
2013-01-20 15:07:00,7.0,-14.4,29.29,NNW,336,7.4,8.9,36,0.00,,SCT095,0.00,VWS V14.01,2013-01-20 21:07:00,
2013-01-20 15:12:00,6.6,-14.7,29.29,SW,234,4.0,5.1,36,0.00,,SCT095,0.00,VWS V14.01,2013-01-20 21:12:00,
2013-01-20 15:17:00,6.4,-14.8,29.29,SSW,207,8.3,8.3,36,0.00,,SCT095,0.00,VWS V14.01,2013-01-20 21:17:00,
2013-01-20 15:23:00,6.1,-15.1,29.29,West,278,3.6,4.7,36,0.00,,SCT095,0.00,VWS V14.01,2013-01-20 21:23:00,
2013-01-20 15:28:00,6.2,-15.0,29.29,SW,231,6.0,6.0,36,0.00,,SCT095,0.00,VWS V14.01,2013-01-20 21:28:00,
2013-01-20 15:33:00,6.1,-15.1,29.29,WSW,239,4.0,4.5,36,0.00,,SCT095,0.00,VWS V14.01,2013-01-20 21:33:00,
2013-01-20 15:38:00,6.1,-15.1,29.29,WNW,289,6.5,6.5,36,0.00,,SCT095,0.00,VWS V14.01,2013-01-20 21:38:00,
2013-01-20 15:43:00,5.9,-15.3,29.29,WSW,252,3.6,3.6,36,0.00,,SCT095,0.00,VWS V14.01,2013-01-20 21:43:00,
2013-01-20 15:48:00,5.7,-15.5,29.29,NNW,333,5.1,5.1,36,0.00,,SCT095,0.00,VWS V14.01,2013-01-20 21:48:00,
2013-01-20 15:53:00,5.5,-15.6,29.29,SW,223,0.0,3.6,36,0.00,,SCT095,0.00,VWS V14.01,2013-01-20 21:53:00,
2013-01-20 15:58:00,5.5,-15.6,29.29,NW,312,4.5,5.6,36,0.00,,SCT095,0.00,VWS V14.01,2013-01-20 21:58:00,
2013-01-20 16:03:00,5.5,-15.6,29.26,NW,313,3.6,3.6,36,0.00,,BKN080,0.00,VWS V14.01,2013-01-20 22:03:00,
2013-01-20 16:08:00,5.2,-16.0,29.26,WNW,303,0.0,0.0,36,0.00,,BKN080,0.00,VWS V14.01,2013-01-20 22:08:00,
2013-01-20 16:13:00,5.2,-16.0,29.26,NW,311,4.0,4.0,36,0.00,,BKN080,0.00,VWS V14.01,2013-01-20 22:13:00,
2013-01-20 16:18:00,5.0,-16.1,29.26,West,273,4.7,7.8,36,0.00,,BKN080,0.00,VWS V14.01,2013-01-20 22:18:00,
2013-01-20 16:23:00,5.0,-16.1,29.26,North,353,0.0,3.1,36,0.00,,BKN080,0.00,VWS V14.01,2013-01-20 22:23:00,
2013-01-20 16:28:00,5.0,-16.1,29.26,SW,219,5.1,5.1,36,0.00,,BKN080,0.00,VWS V14.01,2013-01-20 22:28:00,
2013-01-20 16:33:00,4.8,-16.3,29.26,SW,222,0.0,0.0,36,0.00,,BKN080,0.00,VWS V14.01,2013-01-20 22:33:00,
2013-01-20 16:38:00,4.8,-16.3,29.26,NW,308,0.0,0.0,36,0.00,,BKN080,0.00,VWS V14.01,2013-01-20 22:38:00,
2013-01-20 16:43:00,4.8,-16.3,29.26,NW,308,0.0,0.0,36,0.00,,BKN080,0.00,VWS V14.01,2013-01-20 22:43:00,
2013-01-20 16:48:00,4.4,-16.6,29.26,SW,231,0.0,0.0,36,0.00,,BKN080,0.00,VWS V14.01,2013-01-20 22:48:00,
2013-01-20 16:53:00,4.4,-16.6,29.26,NW,314,0.0,3.6,36,0.00,,BKN080,0.00,VWS V14.01,2013-01-20 22:53:00,
2013-01-20 16:58:00,4.3,-16.8,29.26,WNW,296,0.0,3.1,36,0.00,,BKN080,0.00,VWS V14.01,2013-01-20 22:58:00,
2013-01-20 17:03:00,4.1,-16.9,29.26,NW,322,0.0,0.0,36,0.00,,OVC065,0.00,VWS V14.01,2013-01-20 23:03:00,
2013-01-20 17:08:00,4.1,-16.9,29.26,WNW,282,0.0,4.7,36,0.00,,OVC065,0.00,VWS V14.01,2013-01-20 23:08:00,
2013-01-20 17:13:00,3.9,-17.1,29.26,WNW,282,0.0,0.0,36,0.00,,OVC065,0.00,VWS V14.01,2013-01-20 23:13:00,
2013-01-20 17:18:00,3.9,-17.1,29.26,NW,305,0.0,0.0,36,0.00,,OVC065,0.00,VWS V14.01,2013-01-20 23:18:00,
2013-01-20 17:23:00,3.9,-17.1,29.26,WNW,299,0.0,0.0,36,0.00,,OVC065,0.00,VWS V14.01,2013-01-20 23:23:00,
2013-01-20 17:28:00,3.7,-17.3,29.26,West,276,3.1,4.7,36,0.00,,OVC065,0.00,VWS V14.01,2013-01-20 23:28:00,
2013-01-20 17:33:00,3.5,-17.4,29.26,WNW,295,0.0,0.0,36,0.00,,OVC065,0.00,VWS V14.01,2013-01-20 23:33:00,
2013-01-20 17:38:00,3.5,-17.4,29.26,WNW,295,3.1,3.1,36,0.00,,OVC065,0.00,VWS V14.01,2013-01-20 23:38:00,
2013-01-20 17:43:00,3.5,-17.4,29.26,WNW,295,0.0,0.0,36,0.00,,OVC065,0.00,VWS V14.01,2013-01-20 23:43:00,
2013-01-20 17:48:00,3.5,-17.4,29.26,WNW,296,0.0,0.0,36,0.00,,OVC065,0.00,VWS V14.01,2013-01-20 23:48:00,
2013-01-20 17:53:00,3.5,-17.4,29.26,WNW,284,0.0,0.0,36,0.00,,OVC065,0.00,VWS V14.01,2013-01-20 23:53:00,
2013-01-20 17:58:00,3.5,-17.4,29.26,WNW,284,0.0,0.0,36,0.00,,OVC065,0.00,VWS V14.01,2013-01-20 23:58:00,
2013-01-20 18:03:00,3.5,-17.4,29.26,WNW,284,0.0,0.0,36,0.00,,OVC060,0.00,VWS V14.01,2013-01-21 00:03:00,
2013-01-20 18:08:00,3.5,-17.4,29.26,WNW,284,0.0,0.0,36,0.00,,OVC060,0.00,VWS V14.01,2013-01-21 00:08:00,
2013-01-20 18:13:00,3.5,-17.4,29.26,WNW,282,3.6,3.6,36,0.00,,OVC060,0.00,VWS V14.01,2013-01-21 00:13:00,
2013-01-20 18:18:00,3.5,-17.4,29.26,WNW,282,0.0,0.0,36,0.00,,OVC060,0.00,VWS V14.01,2013-01-21 00:18:00,
2013-01-20 18:23:00,3.5,-17.4,29.26,WNW,282,0.0,0.0,36,0.00,,OVC060,0.00,VWS V14.01,2013-01-21 00:23:00,
2013-01-20 18:28:00,3.5,-17.4,29.26,NW,317,3.1,4.7,36,0.00,,OVC060,0.00,VWS V14.01,2013-01-21 00:28:00,
2013-01-20 18:33:00,3.7,-17.3,29.26,NW,316,0.0,0.0,36,0.00,,OVC060,0.00,VWS V14.01,2013-01-21 00:33:00,
2013-01-20 18:38:00,3.9,-17.1,29.26,West,271,3.6,5.1,36,0.00,,OVC060,0.00,VWS V14.01,2013-01-21 00:38:00,
2013-01-20 18:43:00,3.9,-17.1,29.26,NNW,338,0.0,3.6,36,0.00,,OVC060,0.00,VWS V14.01,2013-01-21 00:43:00,
2013-01-20 18:48:00,4.1,-16.9,29.26,West,276,0.0,5.6,36,0.00,,OVC060,0.00,VWS V14.01,2013-01-21 00:48:00,
2013-01-20 18:53:00,4.1,-16.9,29.26,NW,307,0.0,4.5,36,0.00,,OVC060,0.00,VWS V14.01,2013-01-21 00:53:00,
2013-01-20 18:58:00,4.1,-16.9,29.26,WNW,294,3.1,5.1,36,0.00,,OVC060,0.00,VWS V14.01,2013-01-21 00:58:00,
2013-01-20 19:03:00,4.1,-16.9,29.23,WSW,251,4.0,6.0,36,0.00,,OVC050,0.00,VWS V14.01,2013-01-21 01:03:00,
2013-01-20 19:08:00,4.1,-16.9,29.23,NNW,344,5.6,5.6,36,0.00,,OVC050,0.00,VWS V14.01,2013-01-21 01:08:00,
2013-01-20 19:13:00,4.1,-16.9,29.23,NNW,333,6.9,8.9,36,0.00,,OVC050,0.00,VWS V14.01,2013-01-21 01:13:00,
2013-01-20 19:19:00,3.9,-17.1,29.26,West,280,3.1,6.0,36,0.00,,OVC050,0.00,VWS V14.01,2013-01-21 01:19:00,
2013-01-20 19:23:00,3.9,-17.1,29.26,WNW,297,0.0,2.7,36,0.00,,OVC050,0.00,VWS V14.01,2013-01-21 01:23:00,
2013-01-20 19:29:00,3.9,-17.1,29.26,NNW,339,4.5,5.6,36,0.00,,OVC050,0.00,VWS V14.01,2013-01-21 01:29:00,
2013-01-20 19:34:00,3.7,-17.3,29.26,WNW,289,6.9,6.9,36,0.00,,OVC050,0.00,VWS V14.01,2013-01-21 01:34:00,
2013-01-20 19:39:00,3.5,-17.4,29.26,SSW,195,6.5,8.3,36,0.00,,OVC050,0.00,VWS V14.01,2013-01-21 01:39:00,
2013-01-20 19:43:00,3.4,-17.6,29.26,NNW,330,4.0,5.1,36,0.00,,OVC050,0.00,VWS V14.01,2013-01-21 01:43:00,
2013-01-20 19:48:00,3.4,-17.6,29.26,West,265,5.6,6.5,36,0.00,,OVC050,0.00,VWS V14.01,2013-01-21 01:48:00,
2013-01-20 19:54:00,3.2,-17.7,29.26,WSW,251,5.1,6.5,36,0.00,,OVC050,0.00,VWS V14.01,2013-01-21 01:54:00,
2013-01-20 19:59:00,3.2,-17.7,29.26,SW,229,6.5,7.8,36,0.00,,OVC050,0.00,VWS V14.01,2013-01-21 01:59:00,
2013-01-20 20:04:00,3.0,-17.9,29.26,West,276,2.7,4.5,36,0.00,,BKN042,0.00,VWS V14.01,2013-01-21 02:04:00,
2013-01-20 20:09:00,2.8,-18.1,29.26,NW,326,6.5,6.5,36,0.00,,BKN042,0.00,VWS V14.01,2013-01-21 02:09:00,
2013-01-20 20:14:00,2.6,-18.2,29.26,WSW,240,4.0,4.7,36,0.00,,BKN042,0.00,VWS V14.01,2013-01-21 02:14:00,
2013-01-20 20:19:00,2.5,-18.4,29.26,West,272,4.7,4.7,36,0.00,,BKN042,0.00,VWS V14.01,2013-01-21 02:19:00,
2013-01-20 20:24:00,2.5,-18.4,29.26,NW,304,0.0,4.7,36,0.00,,BKN042,0.00,VWS V14.01,2013-01-21 02:24:00,
2013-01-20 20:29:00,2.1,-18.7,29.26,West,267,3.6,6.0,36,0.00,,BKN042,0.00,VWS V14.01,2013-01-21 02:29:00,
2013-01-20 20:34:00,2.1,-18.7,29.26,NNW,341,3.6,3.6,36,0.00,,BKN042,0.00,VWS V14.01,2013-01-21 02:34:00,
2013-01-20 20:39:00,2.1,-18.7,29.26,SW,231,0.0,0.0,36,0.00,,BKN042,0.00,VWS V14.01,2013-01-21 02:39:00,
2013-01-20 20:44:00,1.9,-18.9,29.26,West,269,3.1,3.1,36,0.00,,BKN042,0.00,VWS V14.01,2013-01-21 02:44:00,
2013-01-20 20:49:00,1.7,-19.0,29.23,North,357,4.5,6.0,36,0.00,,BKN042,0.00,VWS V14.01,2013-01-21 02:49:00,
2013-01-20 20:54:00,1.7,-19.0,29.23,NW,317,4.0,4.0,36,0.00,,BKN042,0.00,VWS V14.01,2013-01-21 02:54:00,
2013-01-20 20:59:00,1.4,-19.4,29.23,West,272,4.7,4.7,36,0.00,,BKN042,0.00,VWS V14.01,2013-01-21 02:59:00,
2013-01-20 21:04:00,1.2,-19.5,29.23,West,267,0.0,0.0,36,0.00,,OVC040,0.00,VWS V14.01,2013-01-21 03:04:00,
2013-01-20 21:09:00,1.2,-19.5,29.23,NNW,335,4.0,4.0,36,0.00,,OVC040,0.00,VWS V14.01,2013-01-21 03:09:00,
2013-01-20 21:14:00,1.0,-19.7,29.23,WSW,244,0.0,0.0,36,0.00,,OVC040,0.00,VWS V14.01,2013-01-21 03:14:00,
2013-01-20 21:19:00,1.0,-19.7,29.23,WSW,245,4.0,4.5,36,0.00,,OVC040,0.00,VWS V14.01,2013-01-21 03:19:00,
2013-01-20 21:24:00,1.0,-19.7,29.23,NW,311,0.0,0.0,36,0.00,,OVC040,0.00,VWS V14.01,2013-01-21 03:24:00,
2013-01-20 21:29:00,1.0,-19.7,29.23,WNW,300,2.7,4.5,36,0.00,,OVC040,0.00,VWS V14.01,2013-01-21 03:29:00,
2013-01-20 21:34:00,1.0,-19.7,29.23,West,280,4.5,4.5,36,0.00,,OVC040,0.00,VWS V14.01,2013-01-21 03:34:00,
2013-01-20 21:39:00,0.8,-19.9,29.23,WNW,289,2.7,2.7,36,0.00,,OVC040,0.00,VWS V14.01,2013-01-21 03:39:00,
2013-01-20 21:44:00,0.8,-19.9,29.23,WNW,288,0.0,0.0,36,0.00,,OVC040,0.00,VWS V14.01,2013-01-21 03:44:00,
2013-01-20 21:49:00,0.8,-19.9,29.23,WSW,250,0.0,4.5,36,0.00,,OVC040,0.00,VWS V14.01,2013-01-21 03:49:00,
2013-01-20 21:54:00,0.8,-19.9,29.23,WSW,250,0.0,0.0,36,0.00,,OVC040,0.00,VWS V14.01,2013-01-21 03:54:00,
2013-01-20 21:59:00,0.7,-20.0,29.23,WSW,250,0.0,0.0,36,0.00,,OVC040,0.00,VWS V14.01,2013-01-21 03:59:00,
2013-01-20 22:04:00,0.5,-20.2,29.23,WSW,253,0.0,3.6,36,0.00,,,0.00,VWS V14.01,2013-01-21 04:04:00,
2013-01-20 22:09:00,0.5,-20.2,29.23,WSW,254,0.0,0.0,36,0.00,,,0.00,VWS V14.01,2013-01-21 04:09:00,
2013-01-20 22:14:00,0.5,-20.2,29.23,WSW,254,0.0,0.0,36,0.00,,,0.00,VWS V14.01,2013-01-21 04:14:00,
2013-01-20 22:19:00,0.5,-20.2,29.23,WSW,254,0.0,0.0,36,0.00,,,0.00,VWS V14.01,2013-01-21 04:19:00,
2013-01-20 22:24:00,0.5,-20.2,29.23,WSW,254,0.0,0.0,36,0.00,,,0.00,VWS V14.01,2013-01-21 04:24:00,
2013-01-20 22:29:00,0.5,-20.2,29.23,WSW,253,0.0,3.6,36,0.00,,,0.00,VWS V14.01,2013-01-21 04:29:00,
2013-01-20 22:34:00,0.5,-20.2,29.23,WSW,253,0.0,0.0,36,0.00,,,0.00,VWS V14.01,2013-01-21 04:34:00,
2013-01-20 22:39:00,0.5,-20.2,29.23,WSW,254,0.0,0.0,36,0.00,,,0.00,VWS V14.01,2013-01-21 04:39:00,
2013-01-20 22:44:00,0.5,-20.2,29.23,WSW,253,0.0,0.0,36,0.00,,,0.00,VWS V14.01,2013-01-21 04:44:00,
2013-01-20 22:49:00,0.5,-20.2,29.23,WSW,253,0.0,0.0,36,0.00,,,0.00,VWS V14.01,2013-01-21 04:49:00,
2013-01-20 22:55:00,0.3,-20.3,29.23,WSW,253,0.0,0.0,36,0.00,,,0.00,VWS V14.01,2013-01-21 04:55:00,
2013-01-20 23:00:00,0.5,-20.2,29.23,WSW,253,0.0,0.0,36,0.00,,,0.00,VWS V14.01,2013-01-21 05:00:00,
2013-01-20 23:02:00,0.5,-20.2,29.23,WSW,253,0.0,0.0,36,0.00,,,0.00,VWS V14.01,2013-01-21 05:02:00,
2013-01-20 23:03:00,0.5,-20.2,29.23,WSW,253,0.0,0.0,36,0.00,,,0.00,VWS V14.01,2013-01-21 05:03:00,
2013-01-20 23:08:00,0.5,-20.2,29.23,WSW,253,0.0,0.0,36,0.00,,,0.00,VWS V14.01,2013-01-21 05:08:00,
2013-01-20 23:13:00,0.7,-20.0,29.23,WSW,250,0.0,2.7,36,0.00,,,0.00,VWS V14.01,2013-01-21 05:13:00,
2013-01-20 23:18:00,0.7,-20.0,29.23,WNW,288,5.1,5.1,36,0.00,,,0.00,VWS V14.01,2013-01-21 05:18:00,
2013-01-20 23:23:00,0.8,-19.9,29.23,NE,48,5.1,7.8,36,0.00,,,0.00,VWS V14.01,2013-01-21 05:23:00,
2013-01-20 23:28:00,0.7,-20.0,29.23,NW,305,4.0,4.0,36,0.00,,,0.00,VWS V14.01,2013-01-21 05:28:00,
2013-01-20 23:33:00,0.5,-20.2,29.23,NNW,346,3.6,4.0,36,0.00,,,0.00,VWS V14.01,2013-01-21 05:33:00,
2013-01-20 23:38:00,0.3,-20.3,29.23,NNW,346,8.7,8.7,36,0.00,,,0.00,VWS V14.01,2013-01-21 05:38:00,
2013-01-20 23:43:00,0.1,-20.5,29.23,WNW,296,6.0,6.0,36,0.00,,,0.00,VWS V14.01,2013-01-21 05:43:00,
2013-01-20 23:48:00,-0.1,-20.7,29.23,ESE,110,2.7,5.1,36,0.00,,,0.00,VWS V14.01,2013-01-21 05:48:00,
2013-01-20 23:53:00,-0.4,-21.0,29.23,WSW,239,2.7,2.7,36,0.00,,,0.00,VWS V14.01,2013-01-21 05:53:00,
2013-01-20 23:58:00,-0.4,-21.0,29.23,WNW,301,4.7,8.7,36,0.00,,,0.00,VWS V14.01,2013-01-21 05:58:00,